Time;durP1;ratioP1;P1;durP2;ratioP2;P2;SDS_P1;SDS_P2;PMS_P1;PMS_P2;Temp;Humidity;BMP_temperature;BMP_pressure;BME280_temperature;BME280_humidity;BME280_pressure;Samples;Min_cycle;Max_cycle;Signal;HPM_P1;HPM_P2
2022/07/30 00:01:45;;;;;;;5.20;3.90;;;;;;;19.29;70.78;97767.36;108246;1288;22348;-78
2022/07/30 00:04:13;;;;;;;5.00;3.60;;;;;;;19.25;70.88;97761.35;108258;1288;23409;-78
2022/07/30 00:06:40;;;;;;;5.10;3.40;;;;;;;19.23;71.31;97760.05;108241;1288;22281;-79
2022/07/30 00:09:08;;;;;;;4.50;3.60;;;;;;;19.22;71.56;97755.11;108148;1288;22385;-79
2022/07/30 00:11:36;;;;;;;4.30;3.90;;;;;;;19.19;71.72;97752.41;108251;1287;22341;-79
2022/07/30 00:14:04;;;;;;;5.40;4.10;;;;;;;19.18;71.81;97745.74;108248;1288;23075;-78
2022/07/30 00:16:33;;;;;;;4.30;3.60;;;;;;;19.24;71.90;97744.16;108240;1288;22402;-78
2022/07/30 00:19:01;;;;;;;5.90;4.00;;;;;;;19.25;72.17;97749.86;107959;1288;22359;-78
2022/07/30 00:21:29;;;;;;;5.00;3.50;;;;;;;19.22;72.57;97750.27;108245;1288;22341;-78
2022/07/30 00:24:07;;;;;;;5.20;3.70;;;;;;;19.21;72.85;97745.41;108278;1288;22340;-78
2022/07/30 00:26:35;;;;;;;7.60;4.50;;;;;;;19.23;72.73;97742.80;108228;1288;22421;-79
2022/07/30 00:29:04;;;;;;;6.80;3.30;;;;;;;19.23;72.52;97744.92;108235;1288;22428;-79
2022/07/30 00:31:32;;;;;;;4.00;3.20;;;;;;;19.26;72.68;97737.02;108240;1287;22330;-78
2022/07/30 00:34:00;;;;;;;5.90;3.30;;;;;;;19.28;73.19;97734.39;108386;1287;22254;-79
2022/07/30 00:36:28;;;;;;;4.90;3.70;;;;;;;19.30;73.32;97736.47;108259;1288;22348;-79
2022/07/30 00:38:56;;;;;;;3.90;3.30;;;;;;;19.28;73.45;97735.89;108144;1288;22353;-78
2022/07/30 00:41:25;;;;;;;5.40;3.50;;;;;;;19.27;73.23;97731.50;108136;1288;22413;-78
2022/07/30 00:43:53;;;;;;;4.60;3.50;;;;;;;19.28;73.30;97729.70;108373;1287;22739;-79
2022/07/30 00:46:22;;;;;;;6.50;3.20;;;;;;;19.34;73.32;97728.90;108255;1288;22328;-79
2022/07/30 00:48:50;;;;;;;5.80;3.30;;;;;;;19.43;73.40;97724.23;108231;1288;23149;-78
2022/07/30 00:51:18;;;;;;;5.10;3.60;;;;;;;19.47;73.35;97724.08;108234;1288;22336;-78
2022/07/30 00:53:46;;;;;;;6.00;3.70;;;;;;;19.48;73.27;97722.14;108251;1287;23030;-78
2022/07/30 00:56:14;;;;;;;7.10;3.50;;;;;;;19.50;73.39;97721.78;108144;1288;22411;-79
2022/07/30 00:58:43;;;;;;;6.40;3.90;;;;;;;19.48;73.30;97722.63;108128;1287;22259;-79
2022/07/30 01:01:11;;;;;;;5.40;3.40;;;;;;;19.46;73.68;97722.17;108151;1288;22349;-79
2022/07/30 01:03:39;;;;;;;5.40;3.90;;;;;;;19.44;73.47;97725.79;108223;1288;22406;-78
2022/07/30 01:06:07;;;;;;;5.60;3.60;;;;;;;19.47;73.60;97728.60;108127;1288;22382;-79
2022/07/30 01:08:42;;;;;;;7.10;3.90;;;;;;;19.55;73.58;97716.80;108128;1288;22284;-78
2022/07/30 01:11:11;;;;;;;5.90;4.10;;;;;;;19.63;73.73;97709.86;108367;1286;23042;-78
2022/07/30 01:13:43;;;;;;;5.10;3.30;;;;;;;19.65;73.42;97701.70;108236;1288;22419;-79
2022/07/30 01:16:12;;;;;;;5.80;3.70;;;;;;;19.67;73.68;97698.16;108245;1287;22389;-78
2022/07/30 01:21:36;;;;;;;8.80;3.70;;;;;;;19.70;73.46;97687.58;108364;1286;22366;-78
2022/07/30 01:24:25;;;;;;;6.50;3.80;;;;;;;19.73;73.65;97673.50;108140;1288;22393;-78
2022/07/30 01:26:54;;;;;;;4.70;3.70;;;;;;;19.68;73.38;97670.75;108157;1288;23035;-78
2022/07/30 01:29:24;;;;;;;6.90;4.00;;;;;;;19.58;73.41;97670.48;108158;1288;22282;-78
2022/07/30 01:31:58;;;;;;;6.50;4.00;;;;;;;19.51;73.62;97665.59;108243;1288;22521;-78
2022/07/30 01:34:33;;;;;;;6.40;4.00;;;;;;;19.51;73.65;97662.09;108148;1288;22430;-78
2022/07/30 01:37:02;;;;;;;;;;;;;;;19.51;73.76;97663.48;108175;1288;22321;-78
2022/07/30 01:39:32;;;;;;;5.30;4.20;;;;;;;19.49;73.76;97664.54;108207;1288;23148;-78
2022/07/30 01:42:04;;;;;;;4.30;3.80;;;;;;;19.50;74.34;97664.33;108091;1288;22450;-78
2022/07/30 01:44:33;;;;;;;6.70;4.00;;;;;;;19.60;74.21;97659.73;108232;1288;22305;-78
2022/07/30 01:47:02;;;;;;;5.60;3.90;;;;;;;19.67;74.04;97654.65;108230;1286;23159;-78
2022/07/30 01:49:33;;;;;;;6.90;4.00;;;;;;;19.71;74.01;97654.55;108153;1288;23245;-79
2022/07/30 01:52:03;;;;;;;5.10;4.30;;;;;;;19.72;74.15;97647.00;108243;1288;22388;-78
2022/07/30 01:54:33;;;;;;;6.00;4.10;;;;;;;19.64;74.21;97644.58;108024;1288;282182;-79
2022/07/30 01:57:04;;;;;;;5.10;3.70;;;;;;;19.55;74.19;97637.93;108085;1288;22363;-79
2022/07/30 01:59:34;;;;;;;6.00;4.00;;;;;;;19.50;74.00;97641.98;108186;1288;22461;-79
2022/07/30 02:02:55;;;;;;;6.30;4.10;;;;;;;19.45;74.25;97640.66;108251;1288;23257;-78
2022/07/30 02:05:25;;;;;;;5.40;4.10;;;;;;;19.41;74.40;97641.20;108206;1287;22299;-78
2022/07/30 02:08:48;;;;;;;5.30;3.80;;;;;;;19.38;74.55;97638.67;108368;1286;22488;-78
2022/07/30 02:12:27;;;;;;;6.20;4.50;;;;;;;19.39;74.58;97633.67;108255;1287;22307;-78
2022/07/30 02:14:22;;;;;;;5.80;4.30;;;;;;;19.25;74.92;97642.86;108147;1288;23168;-78
2022/07/30 02:16:55;;;;;;;10.40;4.80;;;;;;;19.11;75.16;97648.77;108246;1287;22293;-78
2022/07/30 02:19:27;;;;;;;7.10;3.50;;;;;;;19.05;75.45;97641.56;108160;1288;22377;-78
2022/07/30 02:22:08;;;;;;;8.30;3.90;;;;;;;19.15;75.61;97642.45;108102;1288;22459;-78
2022/07/30 02:24:39;;;;;;;9.60;4.20;;;;;;;19.18;75.79;97640.63;108135;1288;22358;-78
2022/07/30 02:27:29;;;;;;;7.30;4.20;;;;;;;19.19;76.24;97640.82;108159;1287;22311;-78
2022/07/30 02:30:02;;;;;;;9.10;4.90;;;;;;;19.26;76.12;97639.21;108139;1288;22320;-78
2022/07/30 02:32:36;;;;;;;7.40;4.60;;;;;;;19.28;76.23;97637.32;108137;1288;22960;-78
2022/07/30 02:35:14;;;;;;;9.00;4.60;;;;;;;19.32;75.94;97630.04;108240;1287;22366;-78
2022/07/30 02:37:45;;;;;;;9.00;5.30;;;;;;;19.27;75.88;97630.36;108189;1288;22327;-78
2022/07/30 02:40:16;;;;;;;10.00;4.50;;;;;;;19.25;76.26;97639.43;108159;1288;22390;-78
2022/07/30 02:42:46;;;;;;;10.40;4.80;;;;;;;19.19;76.74;97633.71;108238;1287;23081;-79
2022/07/30 02:45:18;;;;;;;7.20;4.40;;;;;;;19.15;76.85;97634.89;108161;1288;23122;-79
2022/07/30 02:47:50;;;;;;;6.40;4.40;;;;;;;19.16;76.79;97636.08;108206;1288;23063;-79
2022/07/30 02:50:19;;;;;;;8.50;4.40;;;;;;;19.15;76.66;97634.88;108128;1288;22572;-79
2022/07/30 02:52:48;;;;;;;9.70;4.70;;;;;;;19.09;77.01;97635.30;108244;1287;22443;-79
2022/07/30 02:55:17;;;;;;;8.20;4.70;;;;;;;19.13;76.92;97641.94;108122;1288;22484;-79
2022/07/30 02:57:46;;;;;;;7.80;4.80;;;;;;;19.18;76.77;97642.42;108120;1288;22488;-79
2022/07/30 03:00:15;;;;;;;8.30;4.60;;;;;;;19.22;77.14;97639.23;108134;1288;22377;-79
2022/07/30 03:02:44;;;;;;;8.70;5.10;;;;;;;19.28;77.02;97640.73;108043;1288;22454;-78
2022/07/30 03:05:14;;;;;;;8.00;4.60;;;;;;;19.32;77.29;97638.06;108146;1288;23203;-79
2022/07/30 03:07:43;;;;;;;8.70;4.40;;;;;;;19.41;77.05;97638.08;108231;1288;22327;-78
2022/07/30 03:10:12;;;;;;;7.80;4.40;;;;;;;19.53;77.18;97637.36;108127;1288;22373;-78
2022/07/30 03:12:44;;;;;;;10.20;4.60;;;;;;;19.55;76.73;97632.55;108226;1287;22389;-78
2022/07/30 03:15:13;;;;;;;8.70;5.30;;;;;;;19.56;76.63;97630.84;108230;1287;22401;-79
2022/07/30 03:17:51;;;;;;;7.50;4.80;;;;;;;19.55;76.71;97628.42;108253;1287;22271;-79
2022/07/30 03:20:24;;;;;;;10.20;4.90;;;;;;;19.54;76.82;97627.08;108150;1287;22245;-78
2022/07/30 03:22:54;;;;;;;10.00;4.70;;;;;;;19.52;76.58;97624.86;108155;1288;22458;-78
2022/07/30 03:25:24;;;;;;;8.70;4.60;;;;;;;19.46;76.79;97624.66;108157;1288;22965;-78
2022/07/30 03:27:56;;;;;;;10.00;5.30;;;;;;;19.44;77.00;97623.38;108246;1287;22458;-78
2022/07/30 03:30:26;;;;;;;8.40;4.70;;;;;;;19.40;76.91;97623.31;108155;1288;22444;-78
2022/07/30 03:32:56;;;;;;;9.90;4.70;;;;;;;19.40;76.87;97626.17;108221;1288;22474;-78
2022/07/30 03:35:25;;;;;;;9.90;5.20;;;;;;;19.40;76.84;97626.59;108243;1287;23070;-79
2022/07/30 03:37:55;;;;;;;9.90;4.60;;;;;;;19.35;76.79;97629.77;108130;1288;23137;-78
2022/07/30 03:40:25;;;;;;;9.60;5.10;;;;;;;19.36;76.98;97632.07;108133;1287;23343;-78
2022/07/30 03:42:54;;;;;;;9.70;4.60;;;;;;;19.38;76.95;97635.77;107960;1288;23046;-78
2022/07/30 03:45:23;;;;;;;6.20;4.60;;;;;;;19.39;77.18;97638.92;108144;1288;23152;-77
2022/07/30 03:47:55;;;;;;;5.90;5.00;;;;;;;19.34;77.10;97647.39;108154;1288;22361;-78
2022/07/30 03:50:24;;;;;;;5.60;4.30;;;;;;;19.26;77.14;97645.55;108139;1288;22395;-79
2022/07/30 03:52:52;;;;;;;8.00;5.10;;;;;;;19.24;77.40;97645.80;108153;1288;23353;-77
2022/07/30 03:55:21;;;;;;;8.20;4.40;;;;;;;19.26;77.26;97644.29;108120;1288;22375;-78
2022/07/30 03:57:50;;;;;;;7.70;4.40;;;;;;;19.26;77.74;97641.27;108368;1287;22401;-78
2022/07/30 04:00:23;;;;;;;7.40;4.50;;;;;;;19.31;77.69;97642.19;108143;1288;22176;-78
2022/07/30 04:02:52;;;;;;;7.70;4.90;;;;;;;19.30;77.70;97643.27;108170;1288;22380;-78
2022/07/30 04:05:29;;;;;;;11.90;5.50;;;;;;;19.25;77.83;97641.16;108248;1288;22445;-78
2022/07/30 04:08:08;;;;;;;8.70;4.70;;;;;;;19.16;78.16;97644.49;108159;1288;22252;-77
2022/07/30 04:10:38;;;;;;;8.20;5.00;;;;;;;19.12;78.29;97645.12;108149;1288;22350;-78
2022/07/30 04:13:26;;;;;;;8.60;5.40;;;;;;;19.11;78.43;97644.47;108350;1287;22447;-78
2022/07/30 04:16:03;;;;;;;8.00;4.60;;;;;;;19.12;78.74;97650.90;108127;1288;22373;-78
2022/07/30 04:18:55;;;;;;;7.90;4.90;;;;;;;19.13;78.71;97650.98;108134;1288;22390;-78
2022/07/30 04:21:25;;;;;;;10.40;5.50;;;;;;;19.12;78.86;97654.17;108156;1288;22227;-78
2022/07/30 04:23:54;;;;;;;6.50;5.40;;;;;;;19.09;78.99;97659.81;108155;1288;22296;-78
2022/07/30 04:26:34;;;;;;;7.50;5.90;;;;;;;19.06;78.90;97655.94;108086;1288;22483;-78
2022/07/30 04:29:06;;;;;;;8.30;5.50;;;;;;;19.08;78.97;97657.75;108140;1288;22461;-78
2022/07/30 04:31:34;;;;;;;8.80;5.20;;;;;;;19.08;79.39;97651.13;108237;1287;22309;-78
2022/07/30 04:34:32;;;;;;;9.30;5.40;;;;;;;19.05;79.91;97646.24;107819;1286;22619;-78
2022/07/30 04:37:00;;;;;;;8.40;5.20;;;;;;;19.06;79.82;97646.73;108140;1288;22337;-78
2022/07/30 04:39:29;;;;;;;7.60;5.60;;;;;;;19.08;79.95;97646.67;108066;1287;22506;-78
2022/07/30 04:41:57;;;;;;;8.10;5.20;;;;;;;19.10;80.07;97642.04;108123;1288;23099;-78
2022/07/30 04:44:36;;;;;;;13.50;6.90;;;;;;;19.12;80.59;97642.84;108105;1288;22669;-80
2022/07/30 04:47:25;;;;;;;9.50;5.60;;;;;;;19.13;80.46;97645.54;108126;1288;22527;-79
2022/07/30 04:50:19;;;;;;;8.00;5.70;;;;;;;19.16;80.91;97649.88;108239;1288;22624;-80
2022/07/30 04:52:47;;;;;;;8.00;5.80;;;;;;;19.19;80.52;97649.55;108134;1288;23065;-80
2022/07/30 04:55:21;;;;;;;10.90;6.30;;;;;;;19.26;80.48;97649.44;108127;1288;23054;-79
2022/07/30 04:57:51;;;;;;;8.70;6.30;;;;;;;19.31;80.64;97647.20;108224;1288;22301;-80
2022/07/30 05:00:20;;;;;;;8.20;6.00;;;;;;;19.33;80.76;97654.11;108124;1288;23118;-80
2022/07/30 05:02:52;;;;;;;8.10;6.10;;;;;;;19.37;80.52;97649.95;108055;1287;22416;-80
2022/07/30 05:05:22;;;;;;;7.40;6.00;;;;;;;19.43;80.78;97646.73;108121;1288;22464;-80
2022/07/30 05:07:51;;;;;;;12.70;7.10;;;;;;;19.46;80.83;97648.23;108123;1288;22316;-79
2022/07/30 05:10:19;;;;;;;7.40;6.40;;;;;;;19.47;80.89;97649.35;108117;1288;23022;-79
2022/07/30 05:12:47;;;;;;;8.30;7.00;;;;;;;19.49;80.71;97652.20;108134;1288;23215;-79
2022/07/30 05:15:16;;;;;;;7.40;6.30;;;;;;;19.51;80.86;97649.75;108116;1288;23076;-79
2022/07/30 05:17:44;;;;;;;7.60;5.30;;;;;;;19.57;80.69;97653.98;108133;1287;22400;-79
2022/07/30 05:20:13;;;;;;;9.50;6.40;;;;;;;19.74;81.10;97653.36;108245;1287;23151;-80
2022/07/30 05:23:03;;;;;;;10.90;6.40;;;;;;;19.85;81.00;97651.13;108254;1287;22376;-80
2022/07/30 05:25:31;;;;;;;11.90;7.20;;;;;;;19.94;81.02;97652.13;108124;1288;22951;-80
2022/07/30 05:28:15;;;;;;;10.00;7.60;;;;;;;19.99;80.63;97650.10;108107;1288;22379;-80
2022/07/30 05:30:44;;;;;;;8.20;7.30;;;;;;;19.98;80.21;97646.89;107989;1288;22495;-80
2022/07/30 05:33:16;;;;;;;10.40;7.50;;;;;;;19.95;80.13;97642.77;108133;1288;22490;-80
2022/07/30 05:35:44;;;;;;;8.60;7.30;;;;;;;20.01;80.43;97643.58;108039;1288;22284;-81
2022/07/30 05:38:13;;;;;;;9.70;6.80;;;;;;;20.10;80.24;97642.76;108157;1288;22371;-80
2022/07/30 05:41:13;;;;;;;8.70;7.20;;;;;;;20.15;79.89;97653.79;108114;1288;22454;-80
2022/07/30 05:44:10;;;;;;;10.90;7.50;;;;;;;20.18;80.11;97658.84;108163;1288;22311;-79
2022/07/30 05:46:38;;;;;;;11.60;7.40;;;;;;;20.20;79.97;97664.18;108143;1288;23016;-79
2022/07/30 05:49:07;;;;;;;9.80;6.70;;;;;;;20.22;79.84;97667.88;108273;1287;22303;-80
2022/07/30 05:51:35;;;;;;;10.70;6.90;;;;;;;20.30;79.83;97666.52;108334;1287;23067;-81
2022/07/30 05:54:04;;;;;;;8.00;7.00;;;;;;;20.33;79.87;97667.65;108106;1288;22431;-80
2022/07/30 05:56:35;;;;;;;10.50;7.70;;;;;;;20.38;79.55;97665.80;108128;1288;22318;-78
2022/07/30 05:59:13;;;;;;;9.80;8.20;;;;;;;20.42;79.46;97665.92;108122;1287;22419;-79
2022/07/30 06:02:01;;;;;;;10.60;9.00;;;;;;;20.40;79.33;97666.75;108350;1286;22477;-79
2022/07/30 06:04:48;;;;;;;11.20;8.50;;;;;;;20.44;79.44;97666.10;108263;1287;22327;-79
2022/07/30 06:07:16;;;;;;;9.40;7.60;;;;;;;20.51;79.50;97664.96;108141;1288;22290;-79
2022/07/30 06:09:45;;;;;;;10.70;9.10;;;;;;;20.62;79.41;97666.54;108144;1287;22263;-79
2022/07/30 06:12:13;;;;;;;10.60;8.90;;;;;;;20.60;79.06;97663.16;108262;1286;22329;-79
2022/07/30 06:14:42;;;;;;;11.60;8.50;;;;;;;20.52;78.93;97660.35;108136;1288;22373;-80
2022/07/30 06:17:14;;;;;;;9.00;8.10;;;;;;;20.49;79.14;97661.46;108037;1288;22381;-80
2022/07/30 06:20:05;;;;;;;9.50;8.60;;;;;;;20.58;78.99;97658.10;108107;1288;22374;-79
2022/07/30 06:22:46;;;;;;;10.10;8.60;;;;;;;20.56;78.94;97656.11;108080;1288;22581;-80
2022/07/30 06:25:20;;;;;;;12.60;9.20;;;;;;;20.54;79.00;97656.48;108131;1288;22434;-79
2022/07/30 06:27:48;;;;;;;10.70;8.40;;;;;;;20.58;78.90;97657.27;108130;1288;22349;-79
2022/07/30 06:30:16;;;;;;;10.50;8.00;;;;;;;20.59;78.95;97654.30;108112;1288;22495;-80
2022/07/30 06:32:46;;;;;;;11.70;8.20;;;;;;;20.59;78.97;97653.52;108127;1288;22380;-79
2022/07/30 06:35:16;;;;;;;8.40;7.60;;;;;;;20.67;79.04;97651.89;108114;1288;22577;-77
2022/07/30 06:37:44;;;;;;;10.20;7.80;;;;;;;20.76;78.88;97648.48;108122;1288;23250;-78
2022/07/30 06:40:34;;;;;;;9.20;8.20;;;;;;;20.83;78.78;97643.65;108248;1286;22437;-79
2022/07/30 06:43:08;;;;;;;11.90;8.10;;;;;;;20.88;78.58;97642.69;108114;1288;22304;-79
2022/07/30 06:46:11;;;;;;;11.30;9.00;;;;;;;20.91;78.69;97638.97;107426;1288;22510;-79
2022/07/30 06:48:45;;;;;;;12.60;9.80;;;;;;;20.98;78.43;97641.16;108145;1287;22422;-79
2022/07/30 06:51:14;;;;;;;8.50;7.50;;;;;;;21.00;78.15;97640.71;108091;1288;22435;-79
2022/07/30 06:53:44;;;;;;;12.70;9.00;;;;;;;21.02;78.31;97643.80;108109;1288;23060;-80
2022/07/30 06:56:12;;;;;;;13.50;12.20;;;;;;;21.08;78.23;97638.55;108353;1285;23047;-80
2022/07/30 06:59:05;;;;;;;14.30;13.00;;;;;;;20.99;77.93;97636.18;108087;1288;22425;-79
2022/07/30 07:02:33;;;;;;;16.40;11.70;;;;;;;20.87;78.26;97628.90;108058;1287;22425;-80
2022/07/30 07:05:15;;;;;;;16.00;14.40;;;;;;;20.70;78.59;97627.84;108270;1287;22485;-82
2022/07/30 07:07:45;;;;;;;14.10;12.70;;;;;;;20.70;78.74;97621.58;108124;1288;22462;-82
2022/07/30 07:10:28;;;;;;;14.40;13.10;;;;;;;20.64;78.85;97619.16;108260;1287;22340;-80
2022/07/30 07:13:15;;;;;;;13.50;12.10;;;;;;;20.64;78.75;97618.38;108151;1287;22429;-79
2022/07/30 07:15:43;;;;;;;13.90;11.60;;;;;;;20.66;79.07;97619.27;108112;1288;23127;-80
2022/07/30 07:18:16;;;;;;;15.40;14.10;;;;;;;20.70;79.10;97624.40;108073;1287;22348;-79
2022/07/30 07:20:50;;;;;;;12.90;11.60;;;;;;;20.70;79.27;97622.99;108343;1287;22545;-79
2022/07/30 07:23:18;;;;;;;12.70;11.00;;;;;;;20.75;79.22;97622.97;108329;1287;22451;-79
2022/07/30 07:25:49;;;;;;;13.00;10.90;;;;;;;20.76;79.15;97618.29;108077;1288;22481;-79
2022/07/30 07:28:17;;;;;;;13.60;12.30;;;;;;;20.83;79.40;97622.14;107965;1288;22437;-79
2022/07/30 07:30:45;;;;;;;13.10;11.80;;;;;;;20.84;79.49;97614.56;108045;1287;22420;-79
2022/07/30 07:33:14;;;;;;;10.90;9.70;;;;;;;20.85;79.56;97613.78;108095;1288;22570;-79
2022/07/30 07:35:44;;;;;;;11.50;10.40;;;;;;;20.88;79.55;97620.16;108083;1288;22967;-78
2022/07/30 07:38:20;;;;;;;12.40;10.50;;;;;;;20.92;79.69;97618.80;108242;1288;22497;-79
2022/07/30 07:40:49;;;;;;;10.30;8.00;;;;;;;20.97;79.71;97616.42;108082;1288;22387;-79
2022/07/30 07:43:17;;;;;;;11.20;10.00;;;;;;;21.01;80.00;97609.89;108017;1288;22418;-79
2022/07/30 07:45:45;;;;;;;10.60;7.60;;;;;;;21.12;80.06;97605.63;108105;1287;22401;-79
2022/07/30 07:48:13;;;;;;;12.70;11.20;;;;;;;21.25;80.04;97609.91;108084;1288;22630;-79
2022/07/30 07:50:49;;;;;;;11.20;10.10;;;;;;;21.31;79.65;97608.89;108049;1287;22548;-80
2022/07/30 07:53:36;;;;;;;11.40;8.90;;;;;;;21.31;79.36;97608.25;108233;1287;22454;-79
2022/07/30 07:56:17;;;;;;;9.90;8.90;;;;;;;21.33;79.53;97615.08;108105;1288;22383;-80
2022/07/30 07:58:46;;;;;;;11.60;7.90;;;;;;;21.39;79.73;97614.46;108101;1288;22588;-79
2022/07/30 08:01:16;;;;;;;12.90;7.90;;;;;;;21.54;79.75;97616.79;108263;1287;23154;-80
2022/07/30 08:04:04;;;;;;;9.90;8.90;;;;;;;21.62;79.40;97616.33;108342;1287;22425;-79
2022/07/30 08:07:00;;;;;;;10.50;8.60;;;;;;;21.63;79.38;97616.02;108165;1288;22522;-80
2022/07/30 08:09:55;;;;;;;10.00;8.20;;;;;;;21.61;79.33;97610.74;107993;1287;23072;-80
2022/07/30 08:12:42;;;;;;;10.50;9.10;;;;;;;21.67;79.75;97610.96;108342;1287;22939;-79
2022/07/30 08:15:30;;;;;;;10.90;6.80;;;;;;;21.85;79.54;97604.12;108342;1286;22309;-79
2022/07/30 08:18:37;;;;;;;10.80;9.70;;;;;;;22.03;79.15;97607.48;107335;1295;23090;-80
2022/07/30 08:21:25;;;;;;;11.10;9.20;;;;;;;22.18;79.11;97608.07;107344;1295;22552;-81
2022/07/30 08:23:53;;;;;;;9.20;8.30;;;;;;;22.23;78.51;97607.48;107293;1296;22412;-80
2022/07/30 08:26:21;;;;;;;19.40;7.90;;;;;;;22.22;78.48;97611.08;107272;1296;22311;-80
2022/07/30 08:28:49;;;;;;;10.40;6.60;;;;;;;22.31;78.58;97606.27;107375;1296;23030;-80
2022/07/30 08:31:21;;;;;;;12.30;8.90;;;;;;;22.47;78.29;97608.77;107291;1296;22267;-84
2022/07/30 08:33:52;;;;;;;9.30;8.00;;;;;;;22.61;77.80;97609.33;107379;1295;22247;-82
2022/07/30 08:36:20;;;;;;;11.90;8.60;;;;;;;22.69;77.72;97608.51;107250;1296;22547;-80
2022/07/30 08:38:53;;;;;;;10.50;8.10;;;;;;;22.74;77.49;97605.61;107282;1296;22729;-80
2022/07/30 08:41:23;;;;;;;8.50;7.10;;;;;;;22.86;77.28;97602.52;107356;1296;22382;-80
2022/07/30 08:43:53;;;;;;;8.40;7.60;;;;;;;22.93;76.83;97594.70;107314;1296;22379;-81
2022/07/30 08:46:24;;;;;;;7.80;6.40;;;;;;;22.93;76.47;97586.69;107280;1297;22438;-83
2022/07/30 08:49:10;;;;;;;10.20;6.70;;;;;;;22.95;76.50;97582.47;107280;1296;22407;-81
2022/07/30 08:51:38;;;;;;;9.10;6.70;;;;;;;23.07;76.30;97574.83;107297;1296;22293;-80
2022/07/30 08:54:36;;;;;;;10.60;7.70;;;;;;;23.22;75.90;97577.92;108087;1288;22431;-82
2022/07/30 08:57:04;;;;;;;11.70;7.30;;;;;;;23.22;75.54;97581.77;108093;1288;22327;-81
2022/07/30 08:59:37;;;;;;;8.90;7.10;;;;;;;23.25;75.60;97588.69;108094;1288;22436;-80
2022/07/30 09:02:31;;;;;;;8.20;6.40;;;;;;;23.34;75.24;97583.04;108281;1287;22322;-81
2022/07/30 09:05:03;;;;;;;8.20;7.20;;;;;;;23.34;74.57;97582.27;108102;1288;22316;-80
2022/07/30 09:07:35;;;;;;;8.30;6.60;;;;;;;23.41;74.88;97576.35;108158;1288;22384;-82
2022/07/30 09:10:05;;;;;;;8.10;6.60;;;;;;;23.51;74.38;97571.27;108171;1288;22365;-82
2022/07/30 09:12:42;;;;;;;8.70;6.40;;;;;;;23.60;74.06;97567.73;108077;1287;22570;-80
2022/07/30 09:15:19;;;;;;;8.30;5.30;;;;;;;23.64;73.60;97562.95;108260;1287;22340;-81
2022/07/30 09:17:54;;;;;;;9.00;6.00;;;;;;;23.86;73.77;97554.08;108057;1288;22523;-81
2022/07/30 09:20:25;;;;;;;9.40;6.40;;;;;;;23.98;73.22;97556.34;108163;1288;22530;-81
2022/07/30 09:22:55;;;;;;;7.90;5.20;;;;;;;24.06;72.76;97550.66;108111;1288;22304;-80
2022/07/30 09:25:44;;;;;;;10.20;5.70;;;;;;;24.17;72.83;97560.15;108169;1288;22312;-79
2022/07/30 09:28:33;;;;;;;7.40;5.50;;;;;;;24.39;72.90;97559.95;108336;1287;22411;-80
2022/07/30 09:31:16;;;;;;;8.70;5.10;;;;;;;24.62;72.47;97557.20;108089;1288;23068;-80
2022/07/30 09:34:21;;;;;;;8.40;5.30;;;;;;;24.84;71.99;97554.26;108090;1287;22337;-83
2022/07/30 09:37:07;;;;;;;5.90;4.60;;;;;;;25.14;71.55;97553.95;108294;1286;22478;-82
2022/07/30 09:39:42;;;;;;;5.90;4.70;;;;;;;25.26;70.61;97555.79;108358;1287;23120;-81
2022/07/30 09:42:45;;;;;;;5.70;4.70;;;;;;;25.16;70.02;97558.98;108383;1287;22258;-82
2022/07/30 09:45:18;;;;;;;7.50;4.70;;;;;;;25.21;69.99;97565.42;108121;1288;23251;-81
2022/07/30 09:47:48;;;;;;;6.90;5.30;;;;;;;25.29;69.83;97563.23;108093;1288;22493;-82
2022/07/30 09:50:19;;;;;;;7.40;5.20;;;;;;;25.35;68.96;97557.83;108097;1288;22291;-81
2022/07/30 09:53:08;;;;;;;9.20;5.20;;;;;;;25.28;68.58;97553.87;108122;1288;22340;-81
2022/07/30 09:55:41;;;;;;;7.00;5.40;;;;;;;25.22;67.45;97552.27;108104;1287;22512;-81
2022/07/30 09:58:11;;;;;;;7.00;5.50;;;;;;;25.22;67.35;97545.09;108112;1288;22351;-82
2022/07/30 10:00:57;;;;;;;8.50;4.90;;;;;;;25.35;67.42;97545.23;108029;1288;22314;-83
2022/07/30 10:03:46;;;;;;;5.80;4.70;;;;;;;25.57;67.45;97544.43;108360;1287;22439;-82
2022/07/30 10:06:35;;;;;;;6.10;4.50;;;;;;;25.75;66.50;97540.65;108156;1288;22546;-81
2022/07/30 10:09:47;;;;;;;7.00;4.40;;;;;;;25.83;66.32;97538.80;108263;1287;22405;-83
2022/07/30 10:12:19;;;;;;;6.20;4.30;;;;;;;26.09;65.62;97530.80;108116;1288;23172;-82
2022/07/30 10:14:53;;;;;;;6.40;4.10;;;;;;;26.31;64.98;97531.89;108015;1288;22585;-83
2022/07/30 10:17:22;;;;;;;5.50;3.60;;;;;;;26.53;64.53;97527.46;108275;1288;22965;-82
2022/07/30 10:20:13;;;;;;;5.30;3.80;;;;;;;26.86;62.29;97518.13;107738;1288;22439;-83
2022/07/30 10:23:05;;;;;;;6.00;4.50;;;;;;;27.04;61.72;97514.08;107885;1288;22409;-84
2022/07/30 10:25:37;;;;;;;5.90;3.60;;;;;;;27.10;60.95;97509.33;108294;1288;22592;-82
2022/07/30 10:28:57;;;;;;;4.20;3.50;;;;;;;27.30;60.05;97513.40;108171;1287;22497;-81
2022/07/30 10:31:25;;;;;;;5.90;3.60;;;;;;;27.40;60.55;97513.08;108302;1288;22280;-82
2022/07/30 10:34:18;;;;;;;5.00;3.50;;;;;;;27.53;59.30;97517.67;108103;1288;22457;-84
2022/07/30 10:36:57;;;;;;;5.20;3.50;;;;;;;27.57;58.76;97519.20;108008;1288;22567;-84
2022/07/30 10:39:33;;;;;;;4.90;3.20;;;;;;;27.57;57.88;97520.46;108260;1287;22439;-84
2022/07/30 10:42:25;;;;;;;5.00;3.20;;;;;;;27.61;57.54;97517.00;108108;1287;22401;-85
2022/07/30 10:45:16;;;;;;;4.90;3.40;;;;;;;27.69;56.84;97510.91;107901;1287;22591;-85
2022/07/30 10:47:46;;;;;;;4.60;3.40;;;;;;;27.83;56.53;97510.30;108283;1288;22287;-83
2022/07/30 10:50:18;;;;;;;5.00;3.60;;;;;;;28.03;56.36;97515.72;108100;1288;23126;-84
2022/07/30 10:52:52;;;;;;;4.00;3.50;;;;;;;28.16;54.96;97509.92;108002;1288;22505;-84
2022/07/30 10:55:26;;;;;;;6.00;3.60;;;;;;;28.08;54.52;97507.88;108291;1288;22925;-84
2022/07/30 10:58:14;;;;;;;7.30;3.50;;;;;;;28.11;55.51;97501.72;108377;1287;22931;-84
2022/07/30 11:00:53;;;;;;;6.00;3.40;;;;;;;28.20;54.90;97497.90;108349;1287;23041;-84
2022/07/30 11:03:25;;;;;;;4.70;3.30;;;;;;;28.41;54.20;97488.55;108344;1286;22327;-84
2022/07/30 11:06:13;;;;;;;4.10;3.20;;;;;;;28.54;54.64;97486.25;108068;1287;23025;-84
2022/07/30 11:08:47;;;;;;;5.70;3.50;;;;;;;28.67;54.10;97484.60;108113;1288;23171;-84
2022/07/30 11:11:21;;;;;;;4.50;3.00;;;;;;;28.61;53.46;97485.45;108127;1288;23123;-84
2022/07/30 11:14:09;;;;;;;4.00;3.20;;;;;;;28.36;53.62;97483.42;108285;1288;22506;-84
2022/07/30 11:16:38;;;;;;;4.80;3.50;;;;;;;28.16;53.51;97490.14;108455;1287;23126;-84
2022/07/30 11:19:16;;;;;;;5.90;3.90;;;;;;;27.90;52.63;97497.20;108329;1287;22275;-84
2022/07/30 11:22:24;;;;;;;3.80;3.10;;;;;;;27.47;52.81;97511.85;108116;1288;22891;-84
2022/07/30 11:24:52;;;;;;;6.50;3.80;;;;;;;27.19;53.02;97515.45;108288;1288;22453;-83
2022/07/30 11:27:40;;;;;;;7.50;4.00;;;;;;;26.88;51.76;97520.63;108265;1288;23190;-85
2022/07/30 11:30:14;;;;;;;5.30;3.70;;;;;;;26.55;52.63;97516.64;108110;1288;22457;-85
2022/07/30 11:32:49;;;;;;;6.40;3.90;;;;;;;26.34;52.97;97504.40;108270;1288;22383;-85
2022/07/30 11:35:22;;;;;;;5.10;3.80;;;;;;;26.17;52.96;97498.69;108303;1288;22409;-86
2022/07/30 11:38:18;;;;;;;6.00;4.30;;;;;;;25.92;52.21;97502.02;108114;1288;22360;-84
2022/07/30 11:40:49;;;;;;;4.50;3.80;;;;;;;25.61;52.21;97500.80;108261;1288;22277;-86
2022/07/30 11:43:23;;;;;;;7.70;4.60;;;;;;;25.37;51.91;97492.02;108292;1288;23135;-84
2022/07/30 11:46:21;;;;;;;8.90;4.50;;;;;;;25.07;52.48;97501.14;108281;1286;22326;-84
2022/07/30 11:49:04;;;;;;;7.70;4.80;;;;;;;24.85;52.99;97502.30;108094;1288;22347;-84
2022/07/30 11:51:40;;;;;;;7.90;5.10;;;;;;;24.58;53.77;97504.64;108282;1288;22289;-82
2022/07/30 11:54:11;;;;;;;9.40;5.20;;;;;;;24.36;54.55;97503.77;108111;1288;22393;-83
2022/07/30 11:56:56;;;;;;;8.90;5.50;;;;;;;24.15;55.16;97501.96;108297;1288;22402;-83
2022/07/30 11:59:30;;;;;;;10.10;5.60;;;;;;;23.91;56.10;97502.81;108260;1288;23308;-82
2022/07/30 12:02:00;;;;;;;7.70;5.60;;;;;;;23.72;56.81;97502.91;108266;1288;23012;-82
2022/07/30 12:04:29;;;;;;;6.30;5.40;;;;;;;23.56;57.69;97503.85;108356;1287;22431;-84